マン島 の空港の天気 - METARとTAF

マン島空港 ( EGNS / IOM ) - マン島 Isle of Man
飛行場実況気象(Metar)
観測時間06/16 10:20 BST (06/16 09:20 UTC)
風向・風速南 5m/s
視程10km以上
天気現象
少しの雲 雲底高度 300m
気温14℃
湿度82%
気圧1010hPa
METAREGNS 160920Z 19010KT 9999 FEW010 14/11 Q1010 NOSIG
過去の天気等 Google飛行場航空写真 Wunderground天気予報

過去48時間のMETAR

飛行場予報(TAF)
発表時間: 6/16 06:00 BST (6/16 05:00 UTC)
予報対象時間: 16日7時 BST ~ 16日16時 BST
風向・風速南 6m/s
視程10km以上
少しの雲 雲底高度 370m
16日7時 BST ~ 16日16時 BST に 確率 30% で一時的に
視程9000m
天気現象弱いしゅう雨
全天の8割程度の雲 雲底高度 370m
TAF EGNS 160500Z 1606/1615 19012KT 9999 FEW012
PROB30 TEMPO 1606/1615 9000 -SHRA BKN012